createdAt,value
2024-01-28T00:02:06.419Z,2.50
2024-01-28T00:04:34.789Z,2.10
2024-01-28T00:07:03.056Z,2.38
2024-01-28T00:09:31.345Z,2.72
2024-01-28T00:12:01.017Z,1.88
2024-01-28T00:14:29.236Z,2.35
2024-01-28T00:16:57.442Z,3.28
2024-01-28T00:19:25.703Z,2.25
2024-01-28T00:21:54.101Z,2.58
2024-01-28T00:24:23.265Z,2.15
2024-01-28T00:26:53.224Z,1.83
2024-01-28T00:29:30.000Z,2.25
2024-01-28T00:31:58.279Z,2.15
2024-01-28T00:34:28.291Z,2.63
2024-01-28T00:36:56.607Z,2.15
2024-01-28T00:39:26.207Z,2.60
2024-01-28T00:41:54.502Z,2.13
2024-01-28T00:44:24.194Z,2.50
2024-01-28T00:46:52.400Z,2.63
2024-01-28T00:49:21.166Z,2.22
2024-01-28T00:51:49.446Z,2.65
2024-01-28T00:54:17.988Z,2.63
2024-01-28T00:56:46.237Z,2.30
2024-01-28T00:59:14.948Z,2.95
2024-01-28T01:01:44.574Z,2.55
2024-01-28T01:04:12.898Z,2.35
2024-01-28T01:06:44.840Z,2.38
2024-01-28T01:09:14.075Z,2.38
2024-01-28T01:11:45.104Z,2.50
2024-01-28T01:14:13.563Z,2.45
2024-01-28T01:16:41.823Z,2.10
2024-01-28T01:19:11.555Z,2.45
2024-01-28T01:21:39.962Z,3.05
2024-01-28T01:24:08.268Z,2.80
2024-01-28T01:26:36.484Z,3.13
2024-01-28T01:29:04.723Z,2.70
2024-01-28T01:31:32.990Z,2.95
2024-01-28T01:34:01.448Z,2.58
2024-01-28T01:36:31.786Z,3.00
2024-01-28T01:39:00.095Z,2.13
2024-01-28T01:41:28.405Z,2.60
2024-01-28T01:43:56.769Z,2.42
2024-01-28T01:46:25.477Z,2.92
2024-01-28T01:48:54.299Z,2.28
2024-01-28T01:51:24.505Z,2.60
2024-01-28T01:53:54.280Z,2.75
2024-01-28T01:56:22.817Z,2.42
2024-01-28T01:58:51.152Z,2.47
2024-01-28T02:01:19.515Z,2.72
2024-01-28T02:03:47.959Z,2.22
2024-01-28T02:06:18.440Z,2.38
2024-01-28T02:08:47.903Z,1.80
2024-01-28T02:11:17.687Z,2.42
2024-01-28T02:13:45.925Z,2.33
2024-01-28T02:16:14.120Z,2.58
2024-01-28T02:18:42.667Z,2.03
2024-01-28T02:21:11.097Z,2.95
2024-01-28T02:23:40.941Z,2.65
2024-01-28T02:26:09.372Z,2.45
2024-01-28T02:28:37.746Z,2.60
2024-01-28T02:31:06.411Z,2.55
2024-01-28T02:33:34.774Z,2.67
2024-01-28T02:36:03.200Z,2.67
2024-01-28T02:38:31.469Z,2.25
2024-01-28T02:41:01.672Z,2.90
2024-01-28T02:43:29.832Z,2.65
2024-01-28T02:45:58.189Z,2.60
2024-01-28T02:48:26.722Z,2.08
2024-01-28T02:50:55.100Z,2.55
2024-01-28T02:53:23.823Z,2.50
2024-01-28T02:55:52.149Z,2.35
2024-01-28T02:58:21.832Z,2.80
2024-01-28T03:00:50.210Z,2.03
2024-01-28T03:03:18.543Z,2.30
2024-01-28T03:05:46.909Z,2.25
2024-01-28T03:08:15.202Z,2.55
2024-01-28T03:10:43.568Z,2.70
2024-01-28T03:13:11.880Z,3.08
2024-01-28T03:15:41.688Z,2.25
2024-01-28T03:18:10.371Z,2.80
2024-01-28T03:20:38.642Z,2.45
2024-01-28T03:23:07.018Z,2.20
2024-01-28T03:25:35.303Z,2.20
2024-01-28T03:28:03.610Z,2.33
2024-01-28T03:30:31.989Z,2.63
2024-01-28T03:33:01.848Z,2.25
2024-01-28T03:35:30.221Z,2.50
2024-01-28T03:37:58.498Z,2.15
2024-01-28T03:40:28.097Z,2.50
2024-01-28T03:42:56.464Z,2.20
2024-01-28T03:45:24.722Z,2.58
2024-01-28T03:47:53.186Z,2.80
2024-01-28T03:50:23.651Z,2.45
2024-01-28T03:52:51.893Z,2.50
2024-01-28T03:55:20.235Z,3.05
2024-01-28T03:57:48.590Z,2.22
2024-01-28T04:00:19.933Z,2.53
2024-01-28T04:02:48.350Z,2.80
2024-01-28T04:05:16.656Z,2.97
2024-01-28T04:07:46.467Z,3.38
2024-01-28T04:10:17.139Z,2.50
2024-01-28T04:12:45.576Z,2.85
2024-01-28T04:15:13.923Z,2.88
2024-01-28T04:17:42.342Z,2.20
2024-01-28T04:20:11.383Z,2.40
2024-01-28T04:22:39.901Z,2.72
2024-01-28T04:25:10.127Z,2.53
2024-01-28T04:27:38.808Z,2.63
2024-01-28T04:30:10.218Z,2.40
2024-01-28T04:32:38.836Z,2.67
2024-01-28T04:35:07.719Z,2.88
2024-01-28T04:37:36.310Z,3.15
2024-01-28T04:40:05.785Z,2.33
2024-01-28T04:42:35.802Z,2.72
2024-01-28T04:45:04.270Z,2.50
2024-01-28T04:47:32.893Z,2.83
2024-01-28T04:50:01.404Z,2.80
2024-01-28T04:52:29.859Z,2.88
2024-01-28T04:54:58.249Z,3.00
2024-01-28T04:57:26.773Z,2.85
2024-01-28T04:59:56.533Z,2.65
2024-01-28T05:02:24.876Z,2.75
2024-01-28T05:04:53.225Z,2.50
2024-01-28T05:07:21.662Z,2.40
2024-01-28T05:09:50.154Z,2.10
2024-01-28T05:12:18.576Z,2.10
2024-01-28T05:14:46.961Z,2.80
2024-01-28T05:17:16.744Z,2.53
2024-01-28T05:19:45.170Z,2.42
2024-01-28T05:22:13.579Z,2.63
2024-01-28T05:24:43.828Z,2.35
2024-01-28T05:27:12.203Z,3.08
2024-01-28T05:29:40.633Z,2.33
2024-01-28T05:32:09.932Z,2.53
2024-01-28T05:34:39.807Z,2.92
2024-01-28T05:37:08.191Z,2.30
2024-01-28T05:39:37.437Z,2.28
2024-01-28T05:42:06.144Z,2.60
2024-01-28T05:44:34.515Z,3.03
2024-01-28T05:47:04.642Z,3.25
2024-01-28T05:49:33.063Z,2.67
2024-01-28T05:52:02.766Z,2.85
2024-01-28T05:54:32.116Z,2.55
2024-01-28T05:57:01.019Z,2.33
2024-01-28T05:59:29.455Z,2.47
2024-01-28T06:01:57.759Z,2.60
2024-01-28T06:04:26.117Z,2.75
2024-01-28T06:06:54.443Z,2.47
2024-01-28T06:09:24.346Z,2.75
2024-01-28T06:11:52.684Z,2.45
2024-01-28T06:14:21.019Z,2.60
2024-01-28T06:16:49.426Z,3.30
2024-01-28T06:19:17.872Z,2.22
2024-01-28T06:21:46.630Z,2.70
2024-01-28T06:24:15.367Z,3.08
2024-01-28T06:26:45.032Z,2.25
2024-01-28T06:29:13.424Z,2.42
2024-01-28T06:31:41.749Z,2.30
2024-01-28T06:34:10.166Z,2.80
2024-01-28T06:36:38.585Z,2.63
2024-01-28T06:39:06.911Z,2.25
2024-01-28T06:41:35.924Z,2.80
2024-01-28T06:46:33.786Z,2.63
2024-01-28T06:49:02.797Z,2.65
2024-01-28T06:54:00.003Z,2.17
2024-01-28T06:56:28.554Z,2.55
2024-01-28T06:58:57.240Z,3.03
2024-01-28T07:01:27.237Z,2.35
2024-01-28T07:03:55.690Z,2.60
2024-01-28T07:06:24.177Z,2.58
2024-01-28T07:08:52.504Z,2.75
2024-01-28T07:11:21.013Z,2.83
2024-01-28T07:13:49.292Z,3.10
2024-01-28T07:16:17.727Z,2.63
2024-01-28T07:18:47.432Z,3.03
2024-01-28T07:21:16.159Z,2.75
2024-01-28T07:23:44.702Z,3.58
2024-01-28T07:26:13.189Z,2.60
2024-01-28T07:28:41.683Z,2.80
2024-01-28T07:31:10.694Z,3.30
2024-01-28T07:36:09.366Z,2.28
2024-01-28T07:38:38.138Z,2.78
2024-01-28T07:41:07.384Z,2.67
2024-01-28T07:43:36.412Z,3.10
2024-01-28T07:48:33.405Z,2.70
2024-01-28T07:51:01.965Z,3.28
2024-01-28T07:53:31.649Z,3.08
2024-01-28T07:56:01.456Z,2.63
2024-01-28T07:58:29.729Z,2.60
2024-01-28T08:00:58.292Z,3.10
2024-01-28T08:03:26.704Z,2.30
2024-01-28T08:05:55.108Z,2.83
2024-01-28T08:08:23.462Z,2.45
2024-01-28T08:10:53.244Z,3.15
2024-01-28T08:13:23.297Z,3.25
2024-01-28T08:15:51.768Z,3.10
2024-01-28T08:18:20.159Z,2.67
2024-01-28T08:20:48.608Z,3.10
2024-01-28T08:23:17.032Z,2.50
2024-01-28T08:25:46.185Z,2.88
2024-01-28T08:28:15.828Z,3.05
2024-01-28T08:30:44.292Z,3.15
2024-01-28T08:33:12.575Z,2.63
2024-01-28T08:35:42.701Z,2.83
2024-01-28T08:38:11.461Z,2.85
2024-01-28T08:40:39.910Z,2.60
2024-01-28T08:43:09.615Z,3.05
2024-01-28T08:45:39.552Z,2.70
2024-01-28T08:48:08.962Z,2.55
2024-01-28T08:50:39.190Z,2.72
2024-01-28T08:53:07.565Z,3.03
2024-01-28T08:55:35.978Z,3.25
2024-01-28T08:58:04.223Z,2.60
2024-01-28T09:00:32.803Z,2.78
2024-01-28T09:03:02.742Z,3.22
2024-01-28T09:05:31.338Z,3.05
2024-01-28T09:07:59.687Z,3.50
2024-01-28T09:10:28.010Z,2.85
2024-01-28T09:12:56.296Z,3.00
2024-01-28T09:15:25.143Z,2.95
2024-01-28T09:17:53.625Z,3.60
2024-01-28T09:20:23.329Z,2.72
2024-01-28T09:22:51.648Z,3.25
2024-01-28T09:25:19.821Z,2.78
2024-01-28T09:27:50.180Z,2.60
2024-01-28T09:30:19.015Z,2.72
2024-01-28T09:32:49.117Z,2.60
2024-01-28T09:35:17.644Z,2.92
2024-01-28T09:37:48.119Z,3.17
2024-01-28T09:40:16.589Z,2.88
2024-01-28T09:42:49.737Z,3.03
2024-01-28T09:45:18.950Z,2.63
2024-01-28T09:47:47.698Z,2.95
2024-01-28T09:50:16.090Z,3.67
2024-01-28T09:52:44.363Z,3.22
2024-01-28T09:55:14.365Z,3.22
2024-01-28T09:57:42.777Z,3.40
2024-01-28T10:00:11.909Z,2.83
2024-01-28T10:02:44.484Z,3.53
2024-01-28T10:05:16.299Z,3.10
2024-01-28T10:07:45.612Z,3.35
2024-01-28T10:10:17.146Z,2.85
2024-01-28T10:12:45.767Z,3.70
2024-01-28T10:15:17.904Z,3.05
2024-01-28T10:17:49.437Z,3.05
2024-01-28T10:20:18.692Z,3.03
2024-01-28T10:22:47.281Z,3.13
2024-01-28T10:25:19.110Z,2.83
2024-01-28T10:27:48.600Z,3.17
2024-01-28T10:30:18.401Z,3.13
2024-01-28T10:32:46.972Z,3.10
2024-01-28T10:35:16.061Z,2.90
2024-01-28T10:40:13.142Z,3.30
2024-01-28T10:45:13.133Z,3.08
2024-01-28T10:47:42.551Z,3.03
2024-01-28T10:50:12.329Z,2.65
2024-01-28T10:52:40.788Z,3.22
2024-01-28T10:55:10.750Z,2.72
2024-01-28T10:57:39.015Z,3.08
2024-01-28T11:00:11.935Z,3.63
2024-01-28T11:02:41.634Z,3.08
2024-01-28T11:05:10.600Z,2.92
2024-01-28T11:07:41.311Z,3.25
2024-01-28T11:10:12.661Z,3.00
2024-01-28T11:15:14.931Z,3.33
2024-01-28T11:17:43.301Z,3.63
2024-01-28T11:20:13.134Z,3.20
2024-01-28T11:22:48.829Z,2.70
2024-01-28T11:25:20.510Z,3.05
2024-01-28T11:27:49.889Z,3.00
2024-01-28T11:30:23.448Z,3.10
2024-01-28T11:32:53.678Z,2.90
2024-01-28T11:35:22.593Z,3.05
2024-01-28T11:37:54.485Z,2.85
2024-01-28T11:40:24.969Z,2.70
2024-01-28T11:42:54.500Z,3.03
2024-01-28T11:45:26.656Z,3.80
2024-01-28T11:47:55.400Z,3.50
2024-01-28T11:50:23.907Z,2.75
2024-01-28T11:52:52.245Z,2.58
2024-01-28T11:55:20.738Z,3.17
2024-01-28T11:57:50.806Z,2.85
2024-01-28T12:00:19.676Z,2.17
2024-01-28T12:02:49.340Z,2.67
2024-01-28T12:05:17.682Z,2.65
2024-01-28T12:07:48.394Z,2.85
2024-01-28T12:10:16.944Z,2.55
2024-01-28T12:12:45.718Z,2.67
2024-01-28T12:15:15.672Z,2.78
2024-01-28T12:17:45.612Z,2.78
2024-01-28T12:20:24.153Z,2.40
2024-01-28T12:22:52.781Z,2.47
2024-01-28T12:25:24.792Z,3.28
2024-01-28T12:27:53.529Z,3.47
2024-01-28T12:30:22.553Z,2.65
2024-01-28T12:35:20.413Z,2.90
2024-01-28T12:37:50.279Z,2.78
2024-01-28T12:40:18.655Z,2.88
2024-01-28T12:42:47.101Z,2.65
2024-01-28T12:45:15.534Z,2.63
2024-01-28T12:47:44.267Z,2.42
2024-01-28T12:50:13.070Z,2.58
2024-01-28T12:52:41.360Z,2.65
2024-01-28T12:55:12.416Z,2.80
2024-01-28T12:57:43.303Z,2.40
2024-01-28T13:00:13.627Z,3.03
2024-01-28T13:02:42.461Z,2.88
2024-01-28T13:05:12.143Z,3.00
2024-01-28T13:07:41.561Z,3.05
2024-01-28T13:10:12.005Z,3.08
2024-01-28T13:12:43.302Z,2.35
2024-01-28T13:15:11.999Z,2.75
2024-01-28T13:17:41.350Z,2.47
2024-01-28T13:20:11.106Z,2.70
2024-01-28T13:22:45.004Z,2.45
2024-01-28T13:25:16.691Z,2.38
2024-01-28T13:27:45.167Z,2.60
2024-01-28T13:30:14.762Z,2.70
2024-01-28T13:32:44.592Z,2.83
2024-01-28T13:35:13.260Z,3.10
2024-01-28T13:37:42.343Z,2.75
2024-01-28T13:42:41.352Z,2.53
2024-01-28T13:45:12.759Z,3.08
2024-01-28T13:47:43.136Z,2.70
2024-01-28T13:50:11.740Z,2.70
2024-01-28T13:52:40.118Z,2.33
2024-01-28T13:55:11.686Z,2.83
2024-01-28T13:57:41.671Z,2.60
2024-01-28T14:00:11.789Z,2.80
2024-01-28T14:02:43.339Z,2.88
2024-01-28T14:05:13.824Z,2.60
2024-01-28T14:07:42.410Z,2.75
2024-01-28T14:10:11.744Z,2.40
2024-01-28T14:12:41.474Z,3.00
2024-01-28T14:15:11.332Z,2.55
2024-01-28T14:17:40.005Z,2.50
2024-01-28T14:20:09.562Z,2.60
2024-01-28T14:22:37.944Z,2.50
2024-01-28T14:25:06.640Z,2.47
2024-01-28T14:27:35.176Z,2.95
2024-01-28T14:30:05.438Z,2.53
2024-01-28T14:32:34.157Z,2.75
2024-01-28T14:35:02.610Z,2.25
2024-01-28T14:37:31.115Z,2.38
2024-01-28T14:39:59.650Z,2.28
2024-01-28T14:42:27.959Z,2.03
2024-01-28T14:44:58.657Z,1.98
2024-01-28T14:47:28.642Z,2.10
2024-01-28T14:49:58.098Z,2.40
2024-01-28T14:52:26.721Z,2.00
2024-01-28T14:54:55.251Z,2.47
2024-01-28T14:57:24.058Z,2.17
2024-01-28T14:59:52.436Z,2.10
2024-01-28T15:02:20.925Z,2.30
2024-01-28T15:04:50.632Z,2.38
2024-01-28T15:07:19.087Z,2.42
2024-01-28T15:09:47.476Z,2.63
2024-01-28T15:12:19.548Z,2.20
2024-01-28T15:14:49.776Z,2.15
2024-01-28T15:17:18.060Z,2.15
2024-01-28T15:19:46.447Z,2.75
2024-01-28T15:22:16.329Z,1.90
2024-01-28T15:24:44.633Z,2.47
2024-01-28T15:27:12.988Z,2.13
2024-01-28T15:29:41.223Z,2.15
2024-01-28T15:32:09.941Z,2.38
2024-01-28T15:34:38.177Z,3.25
2024-01-28T15:37:06.512Z,3.42
2024-01-28T15:39:36.551Z,3.17
2024-01-28T15:42:05.520Z,2.95
2024-01-28T15:44:33.676Z,2.97
2024-01-28T15:47:01.932Z,2.70
2024-01-28T15:49:30.215Z,3.28
2024-01-28T15:51:58.514Z,3.85
2024-01-28T15:54:26.800Z,3.97
2024-01-28T15:56:56.646Z,3.72
2024-01-28T15:59:25.067Z,3.40
2024-01-28T16:01:53.318Z,3.35
2024-01-28T16:04:21.558Z,3.22
2024-01-28T16:06:49.992Z,4.30
2024-01-28T16:09:18.508Z,4.15
2024-01-28T16:11:46.818Z,4.28
2024-01-28T16:14:16.435Z,4.25
2024-01-28T16:16:44.597Z,3.28
2024-01-28T16:19:14.802Z,4.10
2024-01-28T16:21:43.310Z,6.07
2024-01-28T16:24:11.739Z,5.32
2024-01-28T16:26:39.959Z,5.03
2024-01-28T16:29:08.320Z,4.65
2024-01-28T16:31:37.988Z,4.80
2024-01-28T16:34:08.607Z,4.90
2024-01-28T16:36:36.989Z,5.43
2024-01-28T16:39:05.265Z,4.57
2024-01-28T16:41:33.479Z,5.28
2024-01-28T16:44:01.727Z,4.72
2024-01-28T16:46:31.318Z,5.45
2024-01-28T16:49:02.154Z,4.93
2024-01-28T16:51:30.464Z,5.78
2024-01-28T16:53:59.636Z,5.15
2024-01-28T16:56:28.028Z,4.70
2024-01-28T16:58:56.632Z,6.07
2024-01-28T17:01:26.004Z,5.32
2024-01-28T17:03:54.429Z,5.38
2024-01-28T17:06:24.217Z,5.35
2024-01-28T17:08:52.534Z,5.38
2024-01-28T17:11:20.783Z,5.72
2024-01-28T17:13:49.110Z,5.50
2024-01-28T17:16:17.377Z,5.40
2024-01-28T17:18:46.219Z,5.20
2024-01-28T17:21:16.372Z,5.63
2024-01-28T17:23:48.710Z,5.05
2024-01-28T17:26:17.115Z,4.93
2024-01-28T17:28:45.340Z,4.57
2024-01-28T17:31:13.564Z,5.72
2024-01-28T17:33:41.938Z,5.03
2024-01-28T17:36:10.384Z,6.10
2024-01-28T17:38:38.679Z,5.70
2024-01-28T17:41:08.404Z,5.35
2024-01-28T17:43:36.658Z,4.68
2024-01-28T17:46:05.005Z,5.65
2024-01-28T17:48:33.389Z,5.97
2024-01-28T17:51:01.719Z,5.22
2024-01-28T17:53:29.912Z,5.50
2024-01-28T17:55:58.723Z,5.75
2024-01-28T17:58:28.330Z,5.78
2024-01-28T18:00:56.666Z,6.10
2024-01-28T18:03:25.062Z,5.97
2024-01-28T18:05:53.324Z,6.28
2024-01-28T18:08:21.676Z,5.82
2024-01-28T18:10:49.858Z,5.75
2024-01-28T18:13:18.136Z,4.70
2024-01-28T18:15:47.882Z,5.65
2024-01-28T18:18:16.292Z,5.85
2024-01-28T18:20:44.644Z,5.22
2024-01-28T18:23:12.942Z,5.38
2024-01-28T18:25:41.232Z,5.78
2024-01-28T18:28:10.466Z,6.13
2024-01-28T18:30:39.253Z,5.13
2024-01-28T18:33:09.489Z,5.32
2024-01-28T18:35:37.847Z,4.95
2024-01-28T18:38:06.073Z,5.43
2024-01-28T18:40:34.342Z,5.25
2024-01-28T18:43:02.675Z,5.05
2024-01-28T18:45:31.593Z,4.72
2024-01-28T18:47:59.905Z,5.35
2024-01-28T18:50:29.520Z,5.97
2024-01-28T18:52:58.564Z,5.22
2024-01-28T18:55:26.825Z,5.50
2024-01-28T18:57:55.175Z,5.07
2024-01-28T19:00:23.650Z,5.25
2024-01-28T19:02:51.932Z,4.95
2024-01-28T19:05:20.523Z,4.93
2024-01-28T19:07:52.940Z,4.90
2024-01-28T19:10:21.213Z,5.38
2024-01-28T19:12:49.703Z,4.95
2024-01-28T19:15:17.982Z,5.05
2024-01-28T19:17:46.398Z,4.88
2024-01-28T19:20:20.677Z,5.35
2024-01-28T19:22:50.370Z,4.38
2024-01-28T19:25:18.761Z,4.68
2024-01-28T19:27:48.485Z,4.97
2024-01-28T19:30:17.534Z,5.20
2024-01-28T19:35:13.966Z,5.60
2024-01-28T19:37:42.237Z,5.10
2024-01-28T19:40:13.648Z,4.72
2024-01-28T19:42:42.313Z,4.93
2024-01-28T19:45:13.037Z,4.90
2024-01-28T19:47:42.381Z,4.50
2024-01-28T19:50:10.997Z,4.65
2024-01-28T19:52:39.282Z,4.45
2024-01-28T19:55:07.960Z,5.07
2024-01-28T19:57:37.615Z,5.10
2024-01-28T20:00:07.276Z,4.68
2024-01-28T20:02:36.819Z,5.28
2024-01-28T20:05:05.862Z,4.72
2024-01-28T20:10:04.645Z,4.43
2024-01-28T20:12:32.970Z,4.30
2024-01-28T20:15:02.765Z,5.05
2024-01-28T20:17:30.961Z,4.00
2024-01-28T20:19:59.476Z,4.20
2024-01-28T20:22:28.332Z,4.57
2024-01-28T20:24:57.080Z,4.18
2024-01-28T20:27:26.342Z,4.40
2024-01-28T20:29:54.790Z,5.03
2024-01-28T20:32:24.667Z,4.93
2024-01-28T20:34:53.268Z,4.70
2024-01-28T20:37:23.614Z,4.63
2024-01-28T20:39:51.949Z,4.45
2024-01-28T20:42:20.675Z,4.75
2024-01-28T20:44:48.924Z,4.82
2024-01-28T20:47:18.805Z,4.25
2024-01-28T20:49:50.611Z,3.95
2024-01-28T20:52:19.005Z,4.43
2024-01-28T20:54:47.293Z,4.35
2024-01-28T20:57:15.869Z,4.20
2024-01-28T20:59:45.423Z,4.20
2024-01-28T21:02:17.326Z,4.68
2024-01-28T21:04:47.784Z,3.90
2024-01-28T21:07:17.135Z,4.07
2024-01-28T21:09:45.357Z,4.00
2024-01-28T21:12:13.694Z,4.07
2024-01-28T21:14:42.034Z,4.50
2024-01-28T21:17:10.210Z,4.10
2024-01-28T21:19:38.547Z,3.80
2024-01-28T21:22:08.318Z,3.83
2024-01-28T21:24:36.696Z,4.10
2024-01-28T21:27:05.130Z,4.28
2024-01-28T21:29:34.034Z,3.97
2024-01-28T21:32:02.470Z,4.22
2024-01-28T21:34:30.997Z,3.83
2024-01-28T21:36:59.573Z,4.60
2024-01-28T21:39:29.322Z,4.43
2024-01-28T21:41:57.554Z,4.00
2024-01-28T21:44:26.554Z,3.90
2024-01-28T21:46:55.694Z,4.20
2024-01-28T21:49:24.372Z,3.92
2024-01-28T21:51:52.613Z,4.38
2024-01-28T21:54:20.949Z,3.92
2024-01-28T21:56:50.699Z,3.78
2024-01-28T21:59:19.148Z,3.70
2024-01-28T22:01:47.431Z,3.45
2024-01-28T22:04:15.829Z,4.05
2024-01-28T22:06:44.320Z,4.35
2024-01-28T22:09:12.847Z,3.90
2024-01-28T22:11:42.380Z,3.78
2024-01-28T22:14:13.395Z,3.95
2024-01-28T22:16:41.568Z,3.90
2024-01-28T22:19:10.219Z,3.63
2024-01-28T22:21:38.584Z,3.53
2024-01-28T22:24:08.527Z,3.83
2024-01-28T22:26:38.026Z,3.70
2024-01-28T22:29:06.638Z,3.75
2024-01-28T22:31:36.198Z,4.40
2024-01-28T22:34:04.533Z,4.10
2024-01-28T22:36:32.852Z,3.40
2024-01-28T22:39:01.278Z,3.90
2024-01-28T22:41:29.779Z,3.95
2024-01-28T22:43:59.251Z,3.25
2024-01-28T22:46:28.245Z,3.42
2024-01-28T22:51:26.090Z,3.78
2024-01-28T22:53:54.326Z,4.00
2024-01-28T22:56:22.513Z,3.95
2024-01-28T22:58:50.829Z,3.80
2024-01-28T23:01:20.793Z,3.42
2024-01-28T23:03:49.552Z,3.72
2024-01-28T23:06:21.241Z,3.38
2024-01-28T23:08:49.477Z,3.78
2024-01-28T23:11:17.712Z,3.25
2024-01-28T23:13:45.862Z,3.88
2024-01-28T23:16:14.202Z,3.80
2024-01-28T23:18:42.702Z,3.83
2024-01-28T23:21:11.055Z,3.90
2024-01-28T23:23:40.669Z,3.97
2024-01-28T23:26:08.888Z,3.50
2024-01-28T23:28:37.086Z,3.55
2024-01-28T23:31:09.338Z,3.35
2024-01-28T23:33:37.911Z,3.63
2024-01-28T23:36:07.417Z,4.30
2024-01-28T23:38:35.593Z,3.88
2024-01-28T23:41:05.808Z,3.58
2024-01-28T23:43:34.021Z,3.72
2024-01-28T23:46:02.934Z,4.13
2024-01-28T23:50:59.287Z,3.25
2024-01-28T23:53:27.480Z,3.72
2024-01-28T23:55:55.770Z,4.18
2024-01-28T23:58:25.902Z,3.30
